Time;durP1;ratioP1;P1;durP2;ratioP2;P2;SDS_P1;SDS_P2;PMS_P1;PMS_P2;Temp;Humidity;BMP_temperature;BMP_pressure;BME280_temperature;BME280_humidity;BME280_pressure;Samples;Min_cycle;Max_cycle;Signal;HPM_P1;HPM_P2
2022/12/02 00:00:47;;;;;;;98.70;45.90;;;;;;;;;;5007963;28;99851;-68
2022/12/02 00:03:16;;;;;;;95.28;43.92;;;;;;;;;;5010297;28;98565;-68
2022/12/02 00:05:43;;;;;;;95.57;45.15;;;;;;;;;;5010922;28;99545;-68
2022/12/02 00:08:20;;;;;;;90.63;44.17;;;;;;;;;;5009529;28;101962;-68
2022/12/02 00:10:47;;;;;;;95.35;45.63;;;;;;;;;;5014926;28;97800;-68
2022/12/02 00:13:13;;;;;;;100.05;45.20;;;;;;;;;;5010784;28;99703;-68
2022/12/02 00:15:41;;;;;;;98.43;46.28;;;;;;;;;;5010231;28;99000;-69
2022/12/02 00:18:08;;;;;;;110.53;47.70;;;;;;;;;;5010336;28;100990;-67
2022/12/02 00:20:35;;;;;;;100.05;46.17;;;;;;;;;;5009859;28;99477;-67
2022/12/02 00:23:01;;;;;;;100.25;44.78;;;;;;;;;;5011026;28;98562;-67
2022/12/02 00:25:28;;;;;;;96.07;44.92;;;;;;;;;;5010602;28;99963;-68
2022/12/02 00:27:54;;;;;;;102.63;46.10;;;;;;;;;;5010149;28;100056;-68
2022/12/02 00:30:20;;;;;;;105.22;45.05;;;;;;;;;;5010188;28;98545;-69
2022/12/02 00:32:47;;;;;;;94.78;43.88;;;;;;;;;;5013556;28;99292;-69
2022/12/02 00:35:14;;;;;;;93.70;42.90;;;;;;;;;;5011381;28;98132;-69
2022/12/02 00:37:40;;;;;;;93.18;43.30;;;;;;;;;;5010883;28;98678;-69
2022/12/02 00:40:07;;;;;;;97.00;44.50;;;;;;;;;;5009738;28;99505;-69
2022/12/02 00:42:33;;;;;;;101.53;45.17;;;;;;;;;;5006834;28;99262;-69
2022/12/02 00:47:44;;;;;;;98.55;44.67;;;;;;;;;;5011273;28;100534;-70
2022/12/02 00:50:11;;;;;;;98.03;43.85;;;;;;;;;;5009337;28;98592;-69
2022/12/02 00:52:37;;;;;;;100.10;44.50;;;;;;;;;;5005138;28;101885;-69
2022/12/02 00:55:04;;;;;;;99.43;44.03;;;;;;;;;;5011809;28;99388;-69
2022/12/02 00:57:30;;;;;;;95.75;43.70;;;;;;;;;;5009456;28;100282;-70
2022/12/02 00:59:56;;;;;;;104.15;45.45;;;;;;;;;;5005862;28;98910;-69
2022/12/02 01:02:22;;;;;;;97.10;45.15;;;;;;;;;;5016813;28;98519;-69
2022/12/02 01:04:49;;;;;;;100.70;44.22;;;;;;;;;;5027692;27;99400;-69
2022/12/02 01:07:16;;;;;;;96.13;44.53;;;;;;;;;;5014900;27;103199;-69
2022/12/02 01:09:42;;;;;;;102.18;44.55;;;;;;;;;;5023019;27;99328;-69
2022/12/02 01:12:08;;;;;;;107.60;46.42;;;;;;;;;;5018671;27;99450;-68
2022/12/02 01:14:34;;;;;;;95.32;43.95;;;;;;;;;;5017716;28;100076;-69
2022/12/02 01:17:01;;;;;;;111.28;46.28;;;;;;;;;;5011683;28;99812;-69
2022/12/02 01:19:27;;;;;;;98.25;45.50;;;;;;;;;;5015486;28;99846;-69
2022/12/02 01:21:53;;;;;;;99.47;44.08;;;;;;;;;;5006915;28;98991;-69
2022/12/02 01:24:19;;;;;;;100.22;43.95;;;;;;;;;;5013698;27;99318;-69
2022/12/02 01:26:46;;;;;;;100.22;43.53;;;;;;;;;;5009448;28;99489;-68
2022/12/02 01:29:12;;;;;;;96.00;44.03;;;;;;;;;;5008521;28;98581;-68
2022/12/02 01:31:38;;;;;;;101.55;43.67;;;;;;;;;;5009423;27;99743;-69
2022/12/02 01:34:05;;;;;;;105.72;43.75;;;;;;;;;;5017664;28;100131;-68
2022/12/02 01:36:31;;;;;;;97.93;43.88;;;;;;;;;;5028049;27;98560;-68
2022/12/02 01:38:57;;;;;;;95.13;42.92;;;;;;;;;;5009609;28;99583;-67
2022/12/02 01:41:24;;;;;;;95.22;44.25;;;;;;;;;;5019978;28;100171;-68
2022/12/02 01:43:50;;;;;;;99.45;43.50;;;;;;;;;;5005102;28;100295;-68
2022/12/02 01:46:16;;;;;;;100.07;44.00;;;;;;;;;;5005369;28;100767;-68
2022/12/02 01:48:43;;;;;;;95.65;43.53;;;;;;;;;;5010528;28;98581;-68
2022/12/02 01:51:09;;;;;;;93.00;41.47;;;;;;;;;;5013704;28;98981;-68
2022/12/02 01:53:36;;;;;;;91.35;42.85;;;;;;;;;;5019138;27;99512;-68
2022/12/02 01:56:02;;;;;;;98.72;42.40;;;;;;;;;;5009764;27;99315;-68
2022/12/02 01:58:29;;;;;;;98.65;43.47;;;;;;;;;;5023298;27;99995;-68
2022/12/02 02:00:56;;;;;;;97.85;42.47;;;;;;;;;;5016134;27;98751;-68
2022/12/02 02:03:23;;;;;;;93.03;42.53;;;;;;;;;;5006823;28;99444;-69
2022/12/02 02:05:50;;;;;;;95.00;40.67;;;;;;;;;;5027918;28;99776;-69
2022/12/02 02:08:17;;;;;;;86.65;41.25;;;;;;;;;;5020115;27;100245;-69
2022/12/02 02:10:44;;;;;;;90.65;40.78;;;;;;;;;;5013010;28;99923;-68
2022/12/02 02:13:11;;;;;;;92.82;41.05;;;;;;;;;;5014094;28;99185;-68
2022/12/02 02:15:38;;;;;;;94.18;41.13;;;;;;;;;;5009638;28;100051;-68
2022/12/02 02:18:06;;;;;;;84.07;39.42;;;;;;;;;;5013337;28;99560;-68
2022/12/02 02:20:33;;;;;;;90.80;40.15;;;;;;;;;;5022747;27;100384;-68
2022/12/02 02:23:05;;;;;;;90.55;38.53;;;;;;;;;;5019503;27;100580;-68
2022/12/02 02:25:45;;;;;;;80.28;39.20;;;;;;;;;;5018641;27;100501;-68
2022/12/02 02:28:11;;;;;;;81.70;37.17;;;;;;;;;;5000910;28;98772;-69
2022/12/02 02:30:37;;;;;;;89.88;40.10;;;;;;;;;;5015488;28;99259;-68
2022/12/02 02:33:05;;;;;;;91.72;38.97;;;;;;;;;;5018299;27;100135;-68
2022/12/02 02:35:33;;;;;;;84.22;37.10;;;;;;;;;;5004058;28;99368;-68
2022/12/02 02:37:59;;;;;;;78.47;35.38;;;;;;;;;;4998559;28;99225;-68
2022/12/02 02:40:26;;;;;;;79.15;34.20;;;;;;;;;;5006535;28;100270;-69
2022/12/02 02:42:55;;;;;;;81.00;34.45;;;;;;;;;;5013469;28;100182;-68
2022/12/02 02:45:23;;;;;;;76.82;33.97;;;;;;;;;;5021053;28;100208;-68
2022/12/02 02:47:50;;;;;;;79.97;33.97;;;;;;;;;;5004228;28;99959;-69
2022/12/02 02:50:17;;;;;;;76.20;33.17;;;;;;;;;;5007984;28;99687;-69
2022/12/02 02:52:43;;;;;;;80.43;33.42;;;;;;;;;;5006504;28;100498;-69
2022/12/02 02:55:16;;;;;;;82.28;32.40;;;;;;;;;;5022293;28;98596;-68
2022/12/02 02:57:42;;;;;;;77.43;31.90;;;;;;;;;;5005243;28;99422;-69
2022/12/02 03:00:09;;;;;;;78.43;31.50;;;;;;;;;;5006611;28;99836;-68
2022/12/02 03:02:36;;;;;;;85.95;32.15;;;;;;;;;;5006682;27;98112;-69
2022/12/02 03:05:03;;;;;;;78.45;32.60;;;;;;;;;;5015281;27;98726;-69
2022/12/02 03:07:29;;;;;;;78.68;32.72;;;;;;;;;;5008045;28;99780;-69
2022/12/02 03:09:56;;;;;;;82.15;33.08;;;;;;;;;;5008279;28;99429;-69
2022/12/02 03:12:22;;;;;;;86.90;33.58;;;;;;;;;;5008842;28;99550;-69
2022/12/02 03:14:48;;;;;;;80.07;31.55;;;;;;;;;;5017810;28;98830;-69
2022/12/02 03:17:15;;;;;;;82.68;30.80;;;;;;;;;;5001027;28;101525;-69
2022/12/02 03:19:42;;;;;;;75.40;31.90;;;;;;;;;;5014752;27;100062;-69
2022/12/02 03:22:08;;;;;;;81.60;32.40;;;;;;;;;;5008340;28;99668;-69
2022/12/02 03:24:35;;;;;;;79.43;32.50;;;;;;;;;;5025660;27;102394;-69
2022/12/02 03:27:01;;;;;;;81.05;32.70;;;;;;;;;;5027353;27;99588;-68
2022/12/02 03:29:28;;;;;;;77.82;31.80;;;;;;;;;;5032119;27;100158;-69
2022/12/02 03:31:57;;;;;;;77.55;31.85;;;;;;;;;;5018230;28;101790;-68
2022/12/02 03:34:23;;;;;;;81.97;32.30;;;;;;;;;;5031702;27;99607;-68
2022/12/02 03:36:49;;;;;;;73.45;30.63;;;;;;;;;;5030497;27;100458;-68
2022/12/02 03:39:16;;;;;;;79.15;30.83;;;;;;;;;;5020854;27;99521;-69
2022/12/02 03:41:43;;;;;;;85.68;33.35;;;;;;;;;;5006000;28;98688;-68
2022/12/02 03:44:10;;;;;;;85.00;33.20;;;;;;;;;;5021553;28;99672;-68
2022/12/02 03:46:36;;;;;;;88.25;33.90;;;;;;;;;;5020175;28;100450;-67
2022/12/02 03:49:03;;;;;;;83.70;32.70;;;;;;;;;;5008330;28;99404;-68
2022/12/02 03:51:30;;;;;;;76.03;31.23;;;;;;;;;;5022459;28;101135;-69
2022/12/02 03:53:56;;;;;;;82.70;32.00;;;;;;;;;;5025584;27;99863;-69
2022/12/02 03:56:23;;;;;;;88.10;32.33;;;;;;;;;;5014702;28;101097;-69
2022/12/02 03:58:50;;;;;;;82.38;32.33;;;;;;;;;;5017515;28;100430;-67
2022/12/02 04:01:17;;;;;;;84.35;32.50;;;;;;;;;;5022131;27;98597;-68
2022/12/02 04:03:44;;;;;;;81.95;31.45;;;;;;;;;;5006393;28;99597;-68
2022/12/02 04:06:10;;;;;;;78.95;31.02;;;;;;;;;;5012856;28;99521;-68
2022/12/02 04:08:37;;;;;;;85.97;32.55;;;;;;;;;;5018144;28;98511;-70
2022/12/02 04:11:03;;;;;;;85.07;32.58;;;;;;;;;;5012651;28;99578;-68
2022/12/02 04:13:29;;;;;;;83.68;31.23;;;;;;;;;;5014470;28;98593;-69
2022/12/02 04:15:56;;;;;;;80.15;31.80;;;;;;;;;;5010549;28;99161;-67
2022/12/02 04:18:22;;;;;;;76.80;30.30;;;;;;;;;;5026281;28;100660;-68
2022/12/02 04:20:48;;;;;;;80.38;32.30;;;;;;;;;;5023845;27;99166;-67
2022/12/02 04:23:15;;;;;;;89.60;32.83;;;;;;;;;;5009152;28;100583;-68
2022/12/02 04:25:41;;;;;;;79.57;31.90;;;;;;;;;;5026171;28;99286;-67
2022/12/02 04:28:07;;;;;;;79.13;31.52;;;;;;;;;;5029700;28;98605;-67
2022/12/02 04:30:34;;;;;;;87.50;33.28;;;;;;;;;;5029432;28;98993;-68
2022/12/02 04:33:00;;;;;;;81.20;31.55;;;;;;;;;;5017377;27;99077;-68
2022/12/02 04:35:26;;;;;;;80.20;31.45;;;;;;;;;;5013163;28;99574;-68
2022/12/02 04:37:54;;;;;;;81.70;30.50;;;;;;;;;;5016160;27;102043;-68
2022/12/02 04:40:21;;;;;;;86.13;34.17;;;;;;;;;;5029392;27;97801;-68
2022/12/02 04:42:47;;;;;;;76.28;30.20;;;;;;;;;;5021565;28;98539;-68
2022/12/02 04:45:14;;;;;;;84.93;31.02;;;;;;;;;;5012187;28;99622;-68
2022/12/02 04:47:40;;;;;;;78.55;29.70;;;;;;;;;;5016084;28;99243;-68
2022/12/02 04:50:07;;;;;;;81.95;31.17;;;;;;;;;;5011600;28;100439;-68
2022/12/02 04:52:34;;;;;;;84.32;30.95;;;;;;;;;;5013760;28;99323;-68
2022/12/02 04:55:00;;;;;;;79.28;29.70;;;;;;;;;;5018145;28;100075;-68
2022/12/02 04:57:27;;;;;;;78.63;30.95;;;;;;;;;;5020895;27;99511;-68
2022/12/02 04:59:57;;;;;;;72.22;28.13;;;;;;;;;;5018890;27;98538;-68
2022/12/02 05:02:23;;;;;;;78.32;30.60;;;;;;;;;;5019729;27;102214;-68
2022/12/02 05:04:49;;;;;;;78.65;31.42;;;;;;;;;;5011423;28;98916;-68
2022/12/02 05:07:16;;;;;;;85.25;31.15;;;;;;;;;;5012803;28;98604;-67
2022/12/02 05:09:42;;;;;;;73.13;28.75;;;;;;;;;;5018769;27;99541;-68
2022/12/02 05:12:09;;;;;;;72.38;30.35;;;;;;;;;;5021585;27;100332;-68
2022/12/02 05:14:35;;;;;;;88.75;32.88;;;;;;;;;;5024608;27;98518;-68
2022/12/02 05:17:01;;;;;;;82.53;31.00;;;;;;;;;;5013865;27;99490;-68
2022/12/02 05:19:27;;;;;;;77.45;29.98;;;;;;;;;;5026557;27;100160;-69
2022/12/02 05:21:54;;;;;;;78.05;31.00;;;;;;;;;;5016604;27;100646;-68
2022/12/02 05:24:20;;;;;;;76.32;28.98;;;;;;;;;;5023685;28;99478;-68
2022/12/02 05:26:46;;;;;;;74.20;28.45;;;;;;;;;;5014650;27;98622;-68
2022/12/02 05:29:12;;;;;;;71.82;27.27;;;;;;;;;;5019605;27;100403;-68
2022/12/02 05:31:39;;;;;;;75.18;27.00;;;;;;;;;;5010643;28;99500;-68
2022/12/02 05:34:05;;;;;;;80.35;29.15;;;;;;;;;;5013157;28;98735;-69
2022/12/02 05:36:31;;;;;;;66.35;26.25;;;;;;;;;;5008022;28;104344;-68
2022/12/02 05:38:58;;;;;;;73.43;26.90;;;;;;;;;;5009962;28;98833;-68
2022/12/02 05:41:24;;;;;;;75.65;27.60;;;;;;;;;;4998539;28;103585;-68
2022/12/02 05:43:50;;;;;;;73.25;27.60;;;;;;;;;;5009058;28;99624;-68
2022/12/02 05:46:18;;;;;;;73.65;27.02;;;;;;;;;;5018863;27;98584;-68
2022/12/02 05:48:45;;;;;;;69.72;27.42;;;;;;;;;;5015645;27;99399;-68
2022/12/02 05:51:13;;;;;;;72.93;26.33;;;;;;;;;;5010610;28;99667;-68
2022/12/02 05:53:40;;;;;;;63.45;25.77;;;;;;;;;;5010720;28;99334;-68
2022/12/02 05:56:12;;;;;;;70.70;26.52;;;;;;;;;;5030722;28;99060;-69
2022/12/02 05:58:39;;;;;;;64.32;25.67;;;;;;;;;;5022164;28;100067;-68
2022/12/02 06:01:14;;;;;;;66.15;24.92;;;;;;;;;;5024194;27;99617;-68
2022/12/02 06:03:41;;;;;;;56.60;24.10;;;;;;;;;;5028444;27;99476;-69
2022/12/02 06:06:09;;;;;;;68.07;24.27;;;;;;;;;;5010878;27;98834;-68
2022/12/02 06:08:35;;;;;;;62.40;24.45;;;;;;;;;;5014731;28;99264;-68
2022/12/02 06:11:24;;;;;;;60.08;24.63;;;;;;;;;;5008015;28;99598;-68
2022/12/02 06:13:50;;;;;;;63.15;23.58;;;;;;;;;;5012919;27;98682;-68
2022/12/02 06:16:22;;;;;;;53.53;22.85;;;;;;;;;;5006540;28;99567;-69
2022/12/02 06:18:49;;;;;;;58.13;24.00;;;;;;;;;;5019059;27;99169;-68
2022/12/02 06:21:17;;;;;;;55.75;23.65;;;;;;;;;;5024306;27;98613;-69
2022/12/02 06:23:44;;;;;;;59.05;23.60;;;;;;;;;;5019608;28;101005;-69
2022/12/02 06:26:15;;;;;;;64.05;24.38;;;;;;;;;;5006624;28;99556;-69
2022/12/02 06:28:43;;;;;;;60.20;23.65;;;;;;;;;;5017784;27;100123;-69
2022/12/02 06:31:13;;;;;;;60.20;23.30;;;;;;;;;;5009723;27;99915;-69
2022/12/02 06:33:40;;;;;;;57.90;22.10;;;;;;;;;;5016798;28;98949;-69
2022/12/02 06:36:11;;;;;;;51.30;22.08;;;;;;;;;;5006175;28;99300;-69
2022/12/02 06:38:41;;;;;;;51.13;22.20;;;;;;;;;;5006528;28;99485;-69
2022/12/02 06:41:23;;;;;;;53.72;21.90;;;;;;;;;;5009188;28;98574;-69
2022/12/02 06:46:34;;;;;;;48.38;20.75;;;;;;;;;;4999386;28;99005;-69
2022/12/02 06:49:12;;;;;;;49.05;20.63;;;;;;;;;;5024972;27;99771;-69
2022/12/02 06:51:39;;;;;;;49.22;20.38;;;;;;;;;;5008720;28;100536;-69
2022/12/02 06:54:12;;;;;;;44.97;20.05;;;;;;;;;;5007307;28;98545;-69
2022/12/02 06:56:39;;;;;;;52.25;22.23;;;;;;;;;;5011588;28;99238;-69
2022/12/02 06:59:05;;;;;;;46.70;20.80;;;;;;;;;;5010727;28;99830;-70
2022/12/02 07:01:40;;;;;;;53.20;22.02;;;;;;;;;;5012908;28;99852;-69
2022/12/02 07:04:24;;;;;;;51.28;21.00;;;;;;;;;;5026121;27;99157;-69
2022/12/02 07:06:53;;;;;;;51.45;20.60;;;;;;;;;;5005695;28;98924;-68
2022/12/02 07:09:39;;;;;;;42.97;20.45;;;;;;;;;;5009386;28;101012;-69
2022/12/02 07:12:11;;;;;;;51.22;20.08;;;;;;;;;;5010298;27;100120;-69
2022/12/02 07:14:37;;;;;;;46.03;20.48;;;;;;;;;;5014021;28;100007;-69
2022/12/02 07:17:12;;;;;;;45.33;20.38;;;;;;;;;;5011895;27;99539;-69
2022/12/02 07:19:39;;;;;;;48.13;21.20;;;;;;;;;;5015239;27;99928;-69
2022/12/02 07:22:16;;;;;;;45.72;20.17;;;;;;;;;;5015461;28;98526;-69
2022/12/02 07:24:47;;;;;;;49.72;22.02;;;;;;;;;;5018991;27;99934;-69
2022/12/02 07:27:19;;;;;;;48.08;20.30;;;;;;;;;;5007531;28;98617;-68
2022/12/02 07:29:47;;;;;;;48.95;20.92;;;;;;;;;;5024768;27;99296;-70
2022/12/02 07:32:13;;;;;;;46.03;19.95;;;;;;;;;;5015312;27;99935;-70
2022/12/02 07:34:39;;;;;;;45.42;19.95;;;;;;;;;;5007960;28;98072;-69
2022/12/02 07:37:06;;;;;;;46.05;20.45;;;;;;;;;;5004722;28;99831;-70
2022/12/02 07:39:32;;;;;;;53.92;20.45;;;;;;;;;;5010478;28;100631;-69
2022/12/02 07:41:58;;;;;;;41.65;19.58;;;;;;;;;;5003079;27;99549;-69
2022/12/02 07:44:25;;;;;;;43.80;20.50;;;;;;;;;;5007413;28;100251;-69
2022/12/02 07:46:51;;;;;;;46.08;20.83;;;;;;;;;;5012380;28;102542;-69
2022/12/02 07:49:17;;;;;;;44.38;20.30;;;;;;;;;;5008878;28;99233;-69
2022/12/02 07:51:43;;;;;;;46.78;20.55;;;;;;;;;;5007289;28;100095;-71
2022/12/02 07:54:10;;;;;;;46.85;21.15;;;;;;;;;;5026592;28;98614;-69
2022/12/02 07:56:36;;;;;;;44.03;19.77;;;;;;;;;;5017068;27;99225;-69
2022/12/02 07:59:02;;;;;;;43.55;21.52;;;;;;;;;;5008810;28;98839;-69
2022/12/02 08:01:37;;;;;;;45.88;20.90;;;;;;;;;;5007482;28;98548;-69
2022/12/02 08:04:04;;;;;;;44.97;20.95;;;;;;;;;;5007494;28;99470;-69
2022/12/02 08:06:30;;;;;;;52.08;21.92;;;;;;;;;;5008975;28;100395;-69
2022/12/02 08:09:04;;;;;;;43.05;21.08;;;;;;;;;;5007691;28;98736;-68
2022/12/02 08:11:30;;;;;;;39.38;19.40;;;;;;;;;;4989345;28;99815;-69
2022/12/02 08:13:56;;;;;;;44.75;21.17;;;;;;;;;;5018755;27;98954;-69
2022/12/02 08:16:22;;;;;;;45.50;20.95;;;;;;;;;;5014529;28;100722;-69
2022/12/02 08:18:49;;;;;;;45.58;21.45;;;;;;;;;;5010996;28;99591;-69
2022/12/02 08:21:15;;;;;;;42.78;20.92;;;;;;;;;;5009513;28;100162;-69
2022/12/02 08:23:42;;;;;;;41.47;19.63;;;;;;;;;;5018622;28;99442;-70
2022/12/02 08:26:08;;;;;;;44.45;20.45;;;;;;;;;;5008811;27;100354;-68
2022/12/02 08:28:34;;;;;;;42.20;20.77;;;;;;;;;;5025418;28;98798;-69
2022/12/02 08:31:00;;;;;;;45.83;20.05;;;;;;;;;;5026498;27;99699;-68
2022/12/02 08:33:27;;;;;;;47.53;21.35;;;;;;;;;;5020522;27;98574;-68
2022/12/02 08:35:53;;;;;;;47.15;21.17;;;;;;;;;;5010781;28;99287;-67
2022/12/02 08:38:19;;;;;;;48.42;21.83;;;;;;;;;;5011162;28;99830;-68
2022/12/02 08:40:46;;;;;;;47.67;21.25;;;;;;;;;;5014815;28;98575;-69
2022/12/02 08:43:12;;;;;;;43.55;20.30;;;;;;;;;;5031334;27;99241;-69
2022/12/02 08:45:38;;;;;;;42.70;21.10;;;;;;;;;;5024550;28;99878;-68
2022/12/02 08:48:05;;;;;;;48.03;20.48;;;;;;;;;;5012314;28;97865;-68
2022/12/02 08:50:31;;;;;;;50.90;21.42;;;;;;;;;;5019383;27;98579;-68
2022/12/02 08:52:57;;;;;;;42.05;20.05;;;;;;;;;;5034429;27;99827;-69
2022/12/02 08:55:24;;;;;;;44.25;20.30;;;;;;;;;;5014027;27;99309;-68
2022/12/02 08:57:50;;;;;;;43.90;20.00;;;;;;;;;;5011043;28;99591;-68
2022/12/02 09:00:17;;;;;;;45.50;21.38;;;;;;;;;;5019342;28;98512;-68
2022/12/02 09:02:43;;;;;;;45.72;20.85;;;;;;;;;;5005588;28;100978;-68
2022/12/02 09:05:10;;;;;;;44.92;19.75;;;;;;;;;;5008453;28;99780;-68
2022/12/02 09:07:36;;;;;;;47.38;19.73;;;;;;;;;;5008987;28;98631;-68
2022/12/02 09:10:03;;;;;;;44.33;20.60;;;;;;;;;;5002547;28;99259;-69
2022/12/02 09:12:29;;;;;;;42.17;19.65;;;;;;;;;;5011046;28;101371;-69
2022/12/02 09:14:56;;;;;;;46.63;21.23;;;;;;;;;;5014562;28;98792;-67
2022/12/02 09:17:22;;;;;;;48.78;20.77;;;;;;;;;;5025953;28;99417;-69
2022/12/02 09:19:48;;;;;;;45.40;20.48;;;;;;;;;;5030565;27;99286;-69
2022/12/02 09:22:14;;;;;;;46.50;20.67;;;;;;;;;;5031094;27;100112;-68
2022/12/02 09:24:41;;;;;;;39.95;20.52;;;;;;;;;;5023321;27;99586;-69
2022/12/02 09:27:07;;;;;;;44.53;19.63;;;;;;;;;;5014757;27;98869;-68
2022/12/02 09:29:33;;;;;;;45.70;20.23;;;;;;;;;;5009595;28;99636;-68
2022/12/02 09:32:00;;;;;;;43.38;19.23;;;;;;;;;;5009693;28;99310;-69
2022/12/02 09:34:26;;;;;;;44.47;19.80;;;;;;;;;;5034583;27;98461;-68
2022/12/02 09:36:53;;;;;;;41.42;19.58;;;;;;;;;;5028183;27;99073;-69
2022/12/02 09:39:19;;;;;;;42.85;19.73;;;;;;;;;;5030930;27;98486;-69
2022/12/02 09:41:45;;;;;;;40.85;19.50;;;;;;;;;;5028385;27;100362;-69
2022/12/02 09:44:12;;;;;;;45.33;19.85;;;;;;;;;;5029482;27;100248;-68
2022/12/02 09:46:38;;;;;;;40.58;19.65;;;;;;;;;;5022834;27;99075;-69
2022/12/02 09:49:05;;;;;;;41.92;19.67;;;;;;;;;;5002639;27;99311;-69
2022/12/02 09:51:32;;;;;;;39.47;18.05;;;;;;;;;;5005787;28;99994;-69
2022/12/02 09:53:59;;;;;;;45.83;20.35;;;;;;;;;;5011817;28;99164;-69
2022/12/02 09:56:25;;;;;;;43.03;18.88;;;;;;;;;;5034187;27;102535;-69
2022/12/02 09:58:53;;;;;;;45.30;19.80;;;;;;;;;;5029716;27;98629;-69
2022/12/02 10:01:19;;;;;;;46.85;18.27;;;;;;;;;;5027551;27;99445;-69
2022/12/02 10:03:48;;;;;;;39.85;19.48;;;;;;;;;;5029044;27;99857;-69
2022/12/02 10:06:17;;;;;;;46.88;20.38;;;;;;;;;;5023846;27;98882;-69
2022/12/02 10:08:44;;;;;;;50.10;19.20;;;;;;;;;;5028712;28;99516;-69
2022/12/02 10:11:20;;;;;;;46.20;21.00;;;;;;;;;;5008200;28;99574;-69
2022/12/02 10:13:47;;;;;;;43.05;19.75;;;;;;;;;;5030035;27;98618;-69
2022/12/02 10:16:13;;;;;;;71.88;21.83;;;;;;;;;;5008788;27;99287;-69
2022/12/02 10:18:40;;;;;;;44.70;19.13;;;;;;;;;;5010206;28;99634;-69
2022/12/02 10:21:07;;;;;;;45.47;20.45;;;;;;;;;;5025422;28;99402;-69
2022/12/02 10:23:49;;;;;;;44.33;20.30;;;;;;;;;;5008023;27;100542;-69
2022/12/02 10:26:15;;;;;;;56.08;22.40;;;;;;;;;;5004300;28;99367;-68
2022/12/02 10:28:42;;;;;;;43.17;19.65;;;;;;;;;;5009543;28;101065;-69
2022/12/02 10:31:12;;;;;;;44.65;19.05;;;;;;;;;;5012482;28;99513;-69
2022/12/02 10:33:40;;;;;;;46.05;20.88;;;;;;;;;;5029474;27;99373;-69
2022/12/02 10:36:07;;;;;;;47.00;20.95;;;;;;;;;;5022923;27;100615;-70
2022/12/02 10:38:41;;;;;;;50.50;21.15;;;;;;;;;;5016296;28;99546;-70
2022/12/02 10:41:14;;;;;;;51.70;22.20;;;;;;;;;;5010878;28;98891;-71
2022/12/02 10:43:41;;;;;;;44.03;20.48;;;;;;;;;;5012185;27;99995;-70
2022/12/02 10:46:10;;;;;;;50.72;22.58;;;;;;;;;;5000809;28;98681;-70
2022/12/02 10:48:37;;;;;;;47.17;21.33;;;;;;;;;;5009757;28;100299;-69
2022/12/02 10:51:03;;;;;;;47.17;20.80;;;;;;;;;;4993128;28;100498;-70
2022/12/02 10:53:30;;;;;;;55.45;21.83;;;;;;;;;;5010041;28;99591;-69
2022/12/02 10:55:56;;;;;;;46.47;19.98;;;;;;;;;;5022586;27;99633;-69
2022/12/02 10:58:27;;;;;;;58.63;22.10;;;;;;;;;;5008170;28;100286;-70
2022/12/02 11:00:55;;;;;;;50.90;21.92;;;;;;;;;;5011166;27;98495;-69
2022/12/02 11:03:22;;;;;;;54.00;22.17;;;;;;;;;;5021927;28;100396;-69
2022/12/02 11:05:49;;;;;;;54.13;23.23;;;;;;;;;;5007558;27;100471;-70
2022/12/02 11:08:15;;;;;;;55.15;21.05;;;;;;;;;;5007827;28;99229;-68
2022/12/02 11:10:45;;;;;;;56.33;23.08;;;;;;;;;;5013411;27;102760;-69
2022/12/02 11:13:11;;;;;;;54.42;22.10;;;;;;;;;;5009228;28;98592;-69
2022/12/02 11:15:41;;;;;;;53.70;22.95;;;;;;;;;;5009330;28;99822;-69
2022/12/02 11:18:08;;;;;;;57.88;22.13;;;;;;;;;;5022504;27;100089;-69
2022/12/02 11:20:36;;;;;;;54.67;22.15;;;;;;;;;;5017992;27;99020;-68
2022/12/02 11:23:06;;;;;;;60.88;23.80;;;;;;;;;;5008108;28;99534;-69
2022/12/02 11:25:41;;;;;;;53.38;21.88;;;;;;;;;;5012026;28;99522;-68
2022/12/02 11:28:16;;;;;;;61.88;23.38;;;;;;;;;;5006097;28;99845;-68
2022/12/02 11:30:44;;;;;;;60.05;22.73;;;;;;;;;;5008311;28;99658;-68
2022/12/02 11:33:11;;;;;;;57.50;23.58;;;;;;;;;;5008397;28;98649;-68
2022/12/02 11:35:56;;;;;;;55.13;22.65;;;;;;;;;;5028660;27;101994;-69
2022/12/02 11:38:24;;;;;;;58.47;23.58;;;;;;;;;;4999526;27;102047;-69
2022/12/02 11:40:50;;;;;;;58.30;23.52;;;;;;;;;;5007153;28;99658;-69
2022/12/02 11:43:37;;;;;;;55.60;23.48;;;;;;;;;;5010858;28;98947;-69
2022/12/02 11:46:04;;;;;;;55.20;23.15;;;;;;;;;;5008275;28;99570;-69
2022/12/02 11:48:30;;;;;;;55.45;23.30;;;;;;;;;;5017354;28;99283;-67
2022/12/02 11:50:56;;;;;;;62.00;24.27;;;;;;;;;;5020654;27;99647;-69
2022/12/02 11:53:23;;;;;;;60.45;24.50;;;;;;;;;;5019655;27;99298;-67
2022/12/02 11:55:51;;;;;;;57.90;23.60;;;;;;;;;;5010587;28;99682;-67
2022/12/02 11:58:31;;;;;;;59.75;23.88;;;;;;;;;;5015484;28;99551;-67
2022/12/02 12:01:11;;;;;;;65.95;26.15;;;;;;;;;;5018437;27;98557;-68
2022/12/02 12:03:42;;;;;;;70.53;25.73;;;;;;;;;;5008024;28;99452;-68
2022/12/02 12:06:08;;;;;;;69.88;25.88;;;;;;;;;;5012283;28;98795;-68
2022/12/02 12:08:36;;;;;;;74.68;28.30;;;;;;;;;;5013164;28;98588;-69
2022/12/02 12:11:19;;;;;;;66.65;26.15;;;;;;;;;;5012184;28;100487;-69
2022/12/02 12:14:03;;;;;;;58.50;24.40;;;;;;;;;;5009361;28;99331;-68
2022/12/02 12:16:31;;;;;;;58.40;23.17;;;;;;;;;;5011458;28;100523;-69
2022/12/02 12:18:58;;;;;;;69.35;24.90;;;;;;;;;;5010564;28;100513;-69
2022/12/02 12:21:29;;;;;;;58.88;24.77;;;;;;;;;;5020846;28;99997;-69
2022/12/02 12:24:28;;;;;;;54.97;23.85;;;;;;;;;;5018416;27;99230;-69
2022/12/02 12:26:56;;;;;;;59.72;23.50;;;;;;;;;;4998076;28;99435;-68
2022/12/02 12:29:23;;;;;;;57.50;22.17;;;;;;;;;;5009936;28;98973;-69
2022/12/02 12:31:50;;;;;;;52.60;21.60;;;;;;;;;;5015558;28;99570;-68
2022/12/02 12:34:16;;;;;;;53.47;21.17;;;;;;;;;;5009828;28;98528;-67
2022/12/02 12:36:43;;;;;;;42.35;19.27;;;;;;;;;;5011567;28;100417;-69
2022/12/02 12:39:09;;;;;;;48.15;19.75;;;;;;;;;;5009835;28;101228;-69
2022/12/02 12:41:36;;;;;;;45.75;20.20;;;;;;;;;;5000315;28;98622;-69
2022/12/02 12:44:23;;;;;;;43.40;19.17;;;;;;;;;;5005114;28;98860;-69
2022/12/02 12:46:57;;;;;;;51.83;20.75;;;;;;;;;;5008344;27;100144;-68
2022/12/02 12:49:24;;;;;;;50.80;20.40;;;;;;;;;;5012493;28;98523;-66
2022/12/02 12:51:50;;;;;;;52.67;20.13;;;;;;;;;;4998000;28;99195;-69
2022/12/02 12:54:17;;;;;;;48.50;18.70;;;;;;;;;;5011804;28;99902;-68
2022/12/02 12:56:43;;;;;;;49.13;19.45;;;;;;;;;;5009900;28;99232;-69
2022/12/02 12:59:10;;;;;;;45.17;18.73;;;;;;;;;;5010218;28;99502;-68
2022/12/02 13:01:36;;;;;;;45.72;19.05;;;;;;;;;;5015394;28;98500;-67
2022/12/02 13:04:03;;;;;;;46.65;18.67;;;;;;;;;;5010900;28;99528;-67
2022/12/02 13:06:29;;;;;;;47.35;19.13;;;;;;;;;;5016479;28;98641;-67
2022/12/02 13:08:55;;;;;;;52.05;21.23;;;;;;;;;;5008811;28;99456;-68
2022/12/02 13:11:22;;;;;;;45.72;19.20;;;;;;;;;;5010086;28;99574;-67
2022/12/02 13:13:48;;;;;;;48.25;18.95;;;;;;;;;;5008924;28;100188;-67
2022/12/02 13:16:14;;;;;;;56.60;18.80;;;;;;;;;;5013869;28;98585;-67
2022/12/02 13:18:41;;;;;;;51.22;20.60;;;;;;;;;;5007865;27;101385;-67
2022/12/02 13:21:07;;;;;;;49.75;18.92;;;;;;;;;;5002981;28;100884;-67
2022/12/02 13:23:33;;;;;;;47.08;18.00;;;;;;;;;;5007589;28;99111;-68
2022/12/02 13:26:00;;;;;;;45.53;18.88;;;;;;;;;;5003521;28;98622;-68
2022/12/02 13:28:26;;;;;;;46.00;18.63;;;;;;;;;;5005025;28;99644;-68
2022/12/02 13:30:53;;;;;;;44.60;18.35;;;;;;;;;;5005343;28;99996;-69
2022/12/02 13:33:20;;;;;;;35.17;15.55;;;;;;;;;;5007754;28;99434;-68
2022/12/02 13:35:46;;;;;;;39.67;15.07;;;;;;;;;;4998714;28;98546;-68
2022/12/02 13:38:13;;;;;;;43.17;15.88;;;;;;;;;;5008189;28;100252;-69
2022/12/02 13:40:39;;;;;;;35.42;14.60;;;;;;;;;;5029805;27;98573;-69
2022/12/02 13:43:05;;;;;;;29.60;13.75;;;;;;;;;;5029571;27;99338;-68
2022/12/02 13:45:32;;;;;;;33.70;14.88;;;;;;;;;;5001578;27;98880;-67
2022/12/02 13:48:00;;;;;;;33.50;13.02;;;;;;;;;;5022692;28;99086;-68
2022/12/02 13:50:27;;;;;;;39.15;15.32;;;;;;;;;;5009879;27;99256;-69
2022/12/02 13:52:53;;;;;;;40.13;14.80;;;;;;;;;;5009696;28;100644;-68
2022/12/02 13:55:19;;;;;;;34.72;14.68;;;;;;;;;;5010663;28;98451;-68
2022/12/02 13:57:45;;;;;;;43.00;16.15;;;;;;;;;;5011139;27;99217;-69
2022/12/02 14:00:12;;;;;;;39.25;13.80;;;;;;;;;;5011273;28;98644;-67
2022/12/02 14:02:40;;;;;;;40.13;14.73;;;;;;;;;;5020029;28;100650;-67
2022/12/02 14:05:07;;;;;;;33.97;12.55;;;;;;;;;;5009890;28;100485;-68
2022/12/02 14:07:34;;;;;;;30.15;12.30;;;;;;;;;;5011077;28;98563;-69
2022/12/02 14:10:00;;;;;;;26.13;11.98;;;;;;;;;;5007468;27;99303;-67
2022/12/02 14:12:27;;;;;;;22.33;10.80;;;;;;;;;;5009603;28;99846;-67
2022/12/02 14:14:53;;;;;;;25.10;11.30;;;;;;;;;;5011513;28;98575;-69
2022/12/02 14:17:20;;;;;;;25.08;10.93;;;;;;;;;;5019768;27;100713;-69
2022/12/02 14:19:46;;;;;;;26.00;10.25;;;;;;;;;;5017356;27;99116;-68
2022/12/02 14:22:12;;;;;;;27.35;10.20;;;;;;;;;;5010379;28;100382;-68